sensor_id;sensor_type;location;lat;lon;timestamp;P1;durP1;ratioP1;P2;durP2;ratioP2
6667;SDS011;3370;47.712;9.082;2022-07-19T00:00:26;5.23;;;2.97;;
6667;SDS011;3370;47.712;9.082;2022-07-19T00:02:52;5.83;;;3.30;;
6667;SDS011;3370;47.712;9.082;2022-07-19T00:05:18;7.53;;;3.37;;
6667;SDS011;3370;47.712;9.082;2022-07-19T00:07:45;3.90;;;3.07;;
6667;SDS011;3370;47.712;9.082;2022-07-19T00:10:13;3.70;;;3.40;;
6667;SDS011;3370;47.712;9.082;2022-07-19T00:12:41;3.60;;;2.90;;
6667;SDS011;3370;47.712;9.082;2022-07-19T00:15:09;6.03;;;3.07;;
6667;SDS011;3370;47.712;9.082;2022-07-19T00:17:43;3.50;;;3.20;;
6667;SDS011;3370;47.712;9.082;2022-07-19T00:20:13;3.50;;;3.23;;
6667;SDS011;3370;47.712;9.082;2022-07-19T00:22:41;7.67;;;3.50;;
6667;SDS011;3370;47.712;9.082;2022-07-19T00:25:08;3.70;;;3.30;;
6667;SDS011;3370;47.712;9.082;2022-07-19T00:27:34;3.50;;;3.20;;
6667;SDS011;3370;47.712;9.082;2022-07-19T00:30:00;5.03;;;3.10;;
6667;SDS011;3370;47.712;9.082;2022-07-19T00:32:29;3.87;;;3.57;;
6667;SDS011;3370;47.712;9.082;2022-07-19T00:34:55;4.77;;;3.00;;
6667;SDS011;3370;47.712;9.082;2022-07-19T00:37:21;4.77;;;3.00;;
6667;SDS011;3370;47.712;9.082;2022-07-19T00:39:47;4.00;;;3.30;;
6667;SDS011;3370;47.712;9.082;2022-07-19T00:42:13;4.23;;;3.17;;
6667;SDS011;3370;47.712;9.082;2022-07-19T00:44:40;3.47;;;3.27;;
6667;SDS011;3370;47.712;9.082;2022-07-19T00:47:06;5.80;;;3.20;;
6667;SDS011;3370;47.712;9.082;2022-07-19T00:49:32;2.57;;;2.47;;
6667;SDS011;3370;47.712;9.082;2022-07-19T00:51:59;6.57;;;2.67;;
6667;SDS011;3370;47.712;9.082;2022-07-19T00:54:27;3.57;;;2.80;;
6667;SDS011;3370;47.712;9.082;2022-07-19T00:56:53;6.03;;;3.10;;
6667;SDS011;3370;47.712;9.082;2022-07-19T00:59:22;3.20;;;2.80;;
6667;SDS011;3370;47.712;9.082;2022-07-19T01:01:49;3.50;;;3.13;;
6667;SDS011;3370;47.712;9.082;2022-07-19T01:04:16;2.97;;;2.77;;
6667;SDS011;3370;47.712;9.082;2022-07-19T01:06:43;4.77;;;3.33;;
6667;SDS011;3370;47.712;9.082;2022-07-19T01:09:09;3.40;;;3.10;;
6667;SDS011;3370;47.712;9.082;2022-07-19T01:11:35;4.90;;;3.63;;
6667;SDS011;3370;47.712;9.082;2022-07-19T01:14:01;12.13;;;3.17;;
6667;SDS011;3370;47.712;9.082;2022-07-19T01:16:27;5.90;;;3.63;;
6667;SDS011;3370;47.712;9.082;2022-07-19T01:18:53;3.43;;;3.13;;
6667;SDS011;3370;47.712;9.082;2022-07-19T01:21:19;4.10;;;3.13;;
6667;SDS011;3370;47.712;9.082;2022-07-19T01:23:50;3.40;;;3.10;;
6667;SDS011;3370;47.712;9.082;2022-07-19T01:26:16;12.40;;;3.40;;
6667;SDS011;3370;47.712;9.082;2022-07-19T01:28:43;5.53;;;3.03;;
6667;SDS011;3370;47.712;9.082;2022-07-19T01:31:10;3.23;;;3.03;;
6667;SDS011;3370;47.712;9.082;2022-07-19T01:33:41;6.07;;;3.00;;
6667;SDS011;3370;47.712;9.082;2022-07-19T01:36:08;3.30;;;3.00;;
6667;SDS011;3370;47.712;9.082;2022-07-19T01:38:35;4.17;;;3.30;;
6667;SDS011;3370;47.712;9.082;2022-07-19T01:41:02;6.00;;;3.27;;
6667;SDS011;3370;47.712;9.082;2022-07-19T01:43:29;3.63;;;3.20;;
6667;SDS011;3370;47.712;9.082;2022-07-19T01:45:56;4.60;;;2.97;;
6667;SDS011;3370;47.712;9.082;2022-07-19T01:48:21;3.30;;;3.00;;
6667;SDS011;3370;47.712;9.082;2022-07-19T01:50:48;3.33;;;3.03;;
6667;SDS011;3370;47.712;9.082;2022-07-19T01:53:14;5.93;;;3.30;;
6667;SDS011;3370;47.712;9.082;2022-07-19T01:55:40;5.87;;;3.23;;
6667;SDS011;3370;47.712;9.082;2022-07-19T01:58:06;7.03;;;3.23;;
6667;SDS011;3370;47.712;9.082;2022-07-19T02:00:32;4.13;;;3.17;;
6667;SDS011;3370;47.712;9.082;2022-07-19T02:02:58;4.63;;;2.83;;
6667;SDS011;3370;47.712;9.082;2022-07-19T02:05:23;3.70;;;3.40;;
6667;SDS011;3370;47.712;9.082;2022-07-19T02:07:49;4.73;;;3.13;;
6667;SDS011;3370;47.712;9.082;2022-07-19T02:10:15;6.63;;;3.63;;
6667;SDS011;3370;47.712;9.082;2022-07-19T02:12:43;4.03;;;3.00;;
6667;SDS011;3370;47.712;9.082;2022-07-19T02:15:10;5.77;;;3.67;;
6667;SDS011;3370;47.712;9.082;2022-07-19T02:17:36;7.37;;;3.83;;
6667;SDS011;3370;47.712;9.082;2022-07-19T02:20:02;3.40;;;3.20;;
6667;SDS011;3370;47.712;9.082;2022-07-19T02:22:29;4.63;;;3.10;;
6667;SDS011;3370;47.712;9.082;2022-07-19T02:24:55;3.20;;;2.87;;
6667;SDS011;3370;47.712;9.082;2022-07-19T02:27:21;6.13;;;3.93;;
6667;SDS011;3370;47.712;9.082;2022-07-19T02:29:47;8.37;;;4.17;;
6667;SDS011;3370;47.712;9.082;2022-07-19T02:32:13;6.80;;;3.73;;
6667;SDS011;3370;47.712;9.082;2022-07-19T02:34:39;3.97;;;3.47;;
6667;SDS011;3370;47.712;9.082;2022-07-19T02:37:05;5.00;;;3.70;;
6667;SDS011;3370;47.712;9.082;2022-07-19T02:39:31;3.73;;;3.43;;
6667;SDS011;3370;47.712;9.082;2022-07-19T02:41:57;4.10;;;3.73;;
6667;SDS011;3370;47.712;9.082;2022-07-19T02:44:23;6.67;;;3.77;;
6667;SDS011;3370;47.712;9.082;2022-07-19T02:46:49;6.23;;;4.13;;
6667;SDS011;3370;47.712;9.082;2022-07-19T02:49:15;7.00;;;3.73;;
6667;SDS011;3370;47.712;9.082;2022-07-19T02:51:40;5.00;;;3.80;;
6667;SDS011;3370;47.712;9.082;2022-07-19T02:54:07;3.60;;;3.30;;
6667;SDS011;3370;47.712;9.082;2022-07-19T02:56:32;4.03;;;3.63;;
6667;SDS011;3370;47.712;9.082;2022-07-19T02:59:01;4.40;;;3.93;;
6667;SDS011;3370;47.712;9.082;2022-07-19T03:01:28;3.10;;;2.90;;
6667;SDS011;3370;47.712;9.082;2022-07-19T03:03:55;5.30;;;3.53;;
6667;SDS011;3370;47.712;9.082;2022-07-19T03:06:22;6.10;;;4.00;;
6667;SDS011;3370;47.712;9.082;2022-07-19T03:08:48;6.47;;;3.40;;
6667;SDS011;3370;47.712;9.082;2022-07-19T03:11:14;4.63;;;4.23;;
6667;SDS011;3370;47.712;9.082;2022-07-19T03:13:40;4.30;;;3.30;;
6667;SDS011;3370;47.712;9.082;2022-07-19T03:16:06;5.00;;;3.77;;
6667;SDS011;3370;47.712;9.082;2022-07-19T03:18:32;4.03;;;3.63;;
6667;SDS011;3370;47.712;9.082;2022-07-19T03:20:59;7.20;;;4.10;;
6667;SDS011;3370;47.712;9.082;2022-07-19T03:23:30;4.23;;;3.83;;
6667;SDS011;3370;47.712;9.082;2022-07-19T03:25:57;3.63;;;3.43;;
6667;SDS011;3370;47.712;9.082;2022-07-19T03:28:24;3.70;;;3.40;;
6667;SDS011;3370;47.712;9.082;2022-07-19T03:30:50;4.23;;;3.93;;
6667;SDS011;3370;47.712;9.082;2022-07-19T03:33:16;3.90;;;3.50;;
6667;SDS011;3370;47.712;9.082;2022-07-19T03:35:43;3.87;;;3.57;;
6667;SDS011;3370;47.712;9.082;2022-07-19T03:38:11;3.90;;;3.70;;
6667;SDS011;3370;47.712;9.082;2022-07-19T03:40:38;4.43;;;3.63;;
6667;SDS011;3370;47.712;9.082;2022-07-19T03:43:04;3.70;;;3.47;;
6667;SDS011;3370;47.712;9.082;2022-07-19T03:45:31;4.80;;;3.70;;
6667;SDS011;3370;47.712;9.082;2022-07-19T03:47:57;7.80;;;4.33;;
6667;SDS011;3370;47.712;9.082;2022-07-19T03:50:23;4.13;;;3.80;;
6667;SDS011;3370;47.712;9.082;2022-07-19T03:52:49;5.10;;;3.60;;
6667;SDS011;3370;47.712;9.082;2022-07-19T03:55:14;4.20;;;3.80;;
6667;SDS011;3370;47.712;9.082;2022-07-19T03:57:40;8.37;;;4.10;;
6667;SDS011;3370;47.712;9.082;2022-07-19T04:00:06;6.80;;;4.70;;
6667;SDS011;3370;47.712;9.082;2022-07-19T04:02:32;6.27;;;3.93;;
6667;SDS011;3370;47.712;9.082;2022-07-19T04:04:58;3.87;;;3.60;;
6667;SDS011;3370;47.712;9.082;2022-07-19T04:07:24;5.07;;;4.00;;
6667;SDS011;3370;47.712;9.082;2022-07-19T04:09:50;4.13;;;3.77;;
6667;SDS011;3370;47.712;9.082;2022-07-19T04:12:16;6.10;;;3.87;;
6667;SDS011;3370;47.712;9.082;2022-07-19T04:14:42;8.33;;;3.97;;
6667;SDS011;3370;47.712;9.082;2022-07-19T04:17:08;3.80;;;3.50;;
6667;SDS011;3370;47.712;9.082;2022-07-19T04:19:33;3.73;;;3.43;;
6667;SDS011;3370;47.712;9.082;2022-07-19T04:22:00;5.77;;;4.60;;
6667;SDS011;3370;47.712;9.082;2022-07-19T04:24:26;3.90;;;3.50;;
6667;SDS011;3370;47.712;9.082;2022-07-19T04:26:52;6.10;;;4.23;;
6667;SDS011;3370;47.712;9.082;2022-07-19T04:29:18;5.27;;;4.20;;
6667;SDS011;3370;47.712;9.082;2022-07-19T04:31:44;4.50;;;4.10;;
6667;SDS011;3370;47.712;9.082;2022-07-19T04:34:10;5.67;;;4.20;;
6667;SDS011;3370;47.712;9.082;2022-07-19T04:36:35;6.60;;;3.70;;
6667;SDS011;3370;47.712;9.082;2022-07-19T04:39:01;5.60;;;4.17;;
6667;SDS011;3370;47.712;9.082;2022-07-19T04:41:27;5.00;;;3.33;;
6667;SDS011;3370;47.712;9.082;2022-07-19T04:43:53;3.93;;;3.53;;
6667;SDS011;3370;47.712;9.082;2022-07-19T04:46:19;5.63;;;3.97;;
6667;SDS011;3370;47.712;9.082;2022-07-19T04:48:45;3.93;;;3.53;;
6667;SDS011;3370;47.712;9.082;2022-07-19T04:51:11;8.20;;;4.70;;
6667;SDS011;3370;47.712;9.082;2022-07-19T04:53:37;6.20;;;4.50;;
6667;SDS011;3370;47.712;9.082;2022-07-19T04:56:02;8.27;;;4.17;;
6667;SDS011;3370;47.712;9.082;2022-07-19T04:58:29;10.70;;;4.43;;
6667;SDS011;3370;47.712;9.082;2022-07-19T05:00:54;5.73;;;5.13;;
6667;SDS011;3370;47.712;9.082;2022-07-19T05:03:20;10.90;;;5.07;;
6667;SDS011;3370;47.712;9.082;2022-07-19T05:05:46;5.00;;;3.87;;
6667;SDS011;3370;47.712;9.082;2022-07-19T05:08:12;7.53;;;3.97;;
6667;SDS011;3370;47.712;9.082;2022-07-19T05:10:38;4.30;;;4.00;;
6667;SDS011;3370;47.712;9.082;2022-07-19T05:13:04;6.37;;;3.77;;
6667;SDS011;3370;47.712;9.082;2022-07-19T05:15:30;6.93;;;4.20;;
6667;SDS011;3370;47.712;9.082;2022-07-19T05:17:56;8.63;;;3.93;;
6667;SDS011;3370;47.712;9.082;2022-07-19T05:20:21;10.40;;;4.30;;
6667;SDS011;3370;47.712;9.082;2022-07-19T05:22:47;6.60;;;4.60;;
6667;SDS011;3370;47.712;9.082;2022-07-19T05:25:14;6.03;;;4.33;;
6667;SDS011;3370;47.712;9.082;2022-07-19T05:27:41;4.50;;;4.10;;
6667;SDS011;3370;47.712;9.082;2022-07-19T05:30:08;5.67;;;4.20;;
6667;SDS011;3370;47.712;9.082;2022-07-19T05:32:35;5.20;;;3.53;;
6667;SDS011;3370;47.712;9.082;2022-07-19T05:35:01;7.80;;;4.43;;
6667;SDS011;3370;47.712;9.082;2022-07-19T05:37:27;5.33;;;4.40;;
6667;SDS011;3370;47.712;9.082;2022-07-19T05:39:54;4.17;;;3.80;;
6667;SDS011;3370;47.712;9.082;2022-07-19T05:42:19;6.57;;;4.10;;
6667;SDS011;3370;47.712;9.082;2022-07-19T05:44:45;12.93;;;5.03;;
6667;SDS011;3370;47.712;9.082;2022-07-19T05:47:11;10.20;;;4.40;;
6667;SDS011;3370;47.712;9.082;2022-07-19T05:49:37;5.33;;;4.37;;
6667;SDS011;3370;47.712;9.082;2022-07-19T05:52:03;7.57;;;4.53;;
6667;SDS011;3370;47.712;9.082;2022-07-19T05:54:29;6.10;;;5.20;;
6667;SDS011;3370;47.712;9.082;2022-07-19T05:56:55;7.40;;;4.50;;
6667;SDS011;3370;47.712;9.082;2022-07-19T05:59:21;11.93;;;4.10;;
6667;SDS011;3370;47.712;9.082;2022-07-19T06:01:50;10.23;;;4.07;;
6667;SDS011;3370;47.712;9.082;2022-07-19T06:04:15;12.00;;;4.03;;
6667;SDS011;3370;47.712;9.082;2022-07-19T06:06:41;5.03;;;3.97;;
6667;SDS011;3370;47.712;9.082;2022-07-19T06:09:08;7.43;;;4.80;;
6667;SDS011;3370;47.712;9.082;2022-07-19T06:11:36;5.07;;;3.67;;
6667;SDS011;3370;47.712;9.082;2022-07-19T06:14:04;9.30;;;4.40;;
6667;SDS011;3370;47.712;9.082;2022-07-19T06:16:31;5.10;;;4.50;;
6667;SDS011;3370;47.712;9.082;2022-07-19T06:18:57;4.50;;;4.10;;
6667;SDS011;3370;47.712;9.082;2022-07-19T06:21:23;6.00;;;4.70;;
6667;SDS011;3370;47.712;9.082;2022-07-19T06:23:49;9.33;;;5.57;;
6667;SDS011;3370;47.712;9.082;2022-07-19T06:26:15;6.63;;;4.70;;
6667;SDS011;3370;47.712;9.082;2022-07-19T06:28:41;4.87;;;3.70;;
6667;SDS011;3370;47.712;9.082;2022-07-19T06:31:08;10.37;;;4.50;;
6667;SDS011;3370;47.712;9.082;2022-07-19T06:33:39;5.77;;;3.50;;
6667;SDS011;3370;47.712;9.082;2022-07-19T06:36:06;8.60;;;4.40;;
6667;SDS011;3370;47.712;9.082;2022-07-19T06:38:32;4.50;;;4.10;;
6667;SDS011;3370;47.712;9.082;2022-07-19T06:40:58;10.40;;;4.50;;
6667;SDS011;3370;47.712;9.082;2022-07-19T06:43:24;7.43;;;4.70;;
6667;SDS011;3370;47.712;9.082;2022-07-19T06:45:50;5.17;;;4.00;;
6667;SDS011;3370;47.712;9.082;2022-07-19T06:48:15;11.30;;;4.07;;
6667;SDS011;3370;47.712;9.082;2022-07-19T06:50:41;5.00;;;3.13;;
6667;SDS011;3370;47.712;9.082;2022-07-19T06:53:07;7.77;;;4.27;;
6667;SDS011;3370;47.712;9.082;2022-07-19T06:55:33;7.50;;;4.53;;
6667;SDS011;3370;47.712;9.082;2022-07-19T06:57:59;7.97;;;4.00;;
6667;SDS011;3370;47.712;9.082;2022-07-19T07:00:24;11.40;;;4.13;;
6667;SDS011;3370;47.712;9.082;2022-07-19T07:02:50;7.73;;;4.30;;
6667;SDS011;3370;47.712;9.082;2022-07-19T07:05:16;4.73;;;4.17;;
6667;SDS011;3370;47.712;9.082;2022-07-19T07:07:42;6.43;;;3.83;;
6667;SDS011;3370;47.712;9.082;2022-07-19T07:10:08;5.77;;;4.30;;
6667;SDS011;3370;47.712;9.082;2022-07-19T07:12:35;7.03;;;4.67;;
6667;SDS011;3370;47.712;9.082;2022-07-19T07:15:02;5.03;;;4.40;;
6667;SDS011;3370;47.712;9.082;2022-07-19T07:17:30;8.90;;;4.43;;
6667;SDS011;3370;47.712;9.082;2022-07-19T07:19:56;10.10;;;4.17;;
6667;SDS011;3370;47.712;9.082;2022-07-19T07:22:22;6.27;;;4.10;;
6667;SDS011;3370;47.712;9.082;2022-07-19T07:24:48;5.70;;;3.77;;
6667;SDS011;3370;47.712;9.082;2022-07-19T07:27:14;6.33;;;4.00;;
6667;SDS011;3370;47.712;9.082;2022-07-19T07:29:40;12.43;;;4.00;;
6667;SDS011;3370;47.712;9.082;2022-07-19T07:32:06;7.93;;;4.23;;
6667;SDS011;3370;47.712;9.082;2022-07-19T07:34:31;7.30;;;4.27;;
6667;SDS011;3370;47.712;9.082;2022-07-19T07:36:57;4.17;;;3.87;;
6667;SDS011;3370;47.712;9.082;2022-07-19T07:39:23;4.47;;;4.17;;
6667;SDS011;3370;47.712;9.082;2022-07-19T07:41:49;4.80;;;4.40;;
6667;SDS011;3370;47.712;9.082;2022-07-19T07:44:15;7.80;;;4.70;;
6667;SDS011;3370;47.712;9.082;2022-07-19T07:46:41;6.60;;;4.90;;
6667;SDS011;3370;47.712;9.082;2022-07-19T07:49:06;4.40;;;3.87;;
6667;SDS011;3370;47.712;9.082;2022-07-19T07:51:32;16.30;;;5.57;;
6667;SDS011;3370;47.712;9.082;2022-07-19T07:53:59;5.50;;;4.10;;
6667;SDS011;3370;47.712;9.082;2022-07-19T07:56:25;11.87;;;4.80;;
6667;SDS011;3370;47.712;9.082;2022-07-19T07:58:51;6.27;;;4.00;;
6667;SDS011;3370;47.712;9.082;2022-07-19T08:01:17;5.53;;;4.77;;
6667;SDS011;3370;47.712;9.082;2022-07-19T08:03:43;12.50;;;4.67;;
6667;SDS011;3370;47.712;9.082;2022-07-19T08:06:09;5.03;;;4.53;;
6667;SDS011;3370;47.712;9.082;2022-07-19T08:08:36;9.10;;;4.17;;
6667;SDS011;3370;47.712;9.082;2022-07-19T08:11:03;9.33;;;4.43;;
6667;SDS011;3370;47.712;9.082;2022-07-19T08:13:29;7.27;;;4.30;;
6667;SDS011;3370;47.712;9.082;2022-07-19T08:15:55;6.67;;;4.53;;
6667;SDS011;3370;47.712;9.082;2022-07-19T08:18:22;5.10;;;4.07;;
6667;SDS011;3370;47.712;9.082;2022-07-19T08:20:48;17.00;;;4.70;;
6667;SDS011;3370;47.712;9.082;2022-07-19T08:23:13;13.00;;;3.93;;
6667;SDS011;3370;47.712;9.082;2022-07-19T08:25:40;7.20;;;4.50;;
6667;SDS011;3370;47.712;9.082;2022-07-19T08:28:05;9.90;;;4.07;;
6667;SDS011;3370;47.712;9.082;2022-07-19T08:30:31;5.23;;;4.43;;
6667;SDS011;3370;47.712;9.082;2022-07-19T08:32:57;3.90;;;3.60;;
6667;SDS011;3370;47.712;9.082;2022-07-19T08:35:25;4.20;;;3.80;;
6667;SDS011;3370;47.712;9.082;2022-07-19T08:37:52;4.37;;;4.07;;
6667;SDS011;3370;47.712;9.082;2022-07-19T08:40:18;8.70;;;4.70;;
6667;SDS011;3370;47.712;9.082;2022-07-19T08:42:43;9.70;;;4.30;;
6667;SDS011;3370;47.712;9.082;2022-07-19T08:45:11;5.00;;;4.50;;
6667;SDS011;3370;47.712;9.082;2022-07-19T08:47:38;10.63;;;4.67;;
6667;SDS011;3370;47.712;9.082;2022-07-19T08:50:05;6.90;;;4.63;;
6667;SDS011;3370;47.712;9.082;2022-07-19T08:52:34;11.50;;;5.20;;
6667;SDS011;3370;47.712;9.082;2022-07-19T08:55:01;5.20;;;4.30;;
6667;SDS011;3370;47.712;9.082;2022-07-19T08:57:27;7.87;;;4.97;;
6667;SDS011;3370;47.712;9.082;2022-07-19T09:00:12;7.20;;;4.13;;
6667;SDS011;3370;47.712;9.082;2022-07-19T09:02:38;8.90;;;4.70;;
6667;SDS011;3370;47.712;9.082;2022-07-19T09:05:08;6.87;;;4.57;;
6667;SDS011;3370;47.712;9.082;2022-07-19T09:07:36;6.97;;;4.77;;
6667;SDS011;3370;47.712;9.082;2022-07-19T09:10:19;6.03;;;4.30;;
6667;SDS011;3370;47.712;9.082;2022-07-19T09:15:39;4.50;;;4.10;;
6667;SDS011;3370;47.712;9.082;2022-07-19T09:18:21;6.70;;;4.00;;
6667;SDS011;3370;47.712;9.082;2022-07-19T09:20:48;4.70;;;4.30;;
6667;SDS011;3370;47.712;9.082;2022-07-19T09:23:20;4.47;;;4.07;;
6667;SDS011;3370;47.712;9.082;2022-07-19T09:25:47;6.03;;;4.30;;
6667;SDS011;3370;47.712;9.082;2022-07-19T09:28:17;12.87;;;4.20;;
6667;SDS011;3370;47.712;9.082;2022-07-19T09:30:45;9.70;;;4.13;;
6667;SDS011;3370;47.712;9.082;2022-07-19T09:33:24;10.53;;;4.53;;
6667;SDS011;3370;47.712;9.082;2022-07-19T09:46:53;4.33;;;3.93;;
6667;SDS011;3370;47.712;9.082;2022-07-19T09:49:15;4.40;;;4.00;;
6667;SDS011;3370;47.712;9.082;2022-07-19T09:51:44;4.47;;;4.07;;
6667;SDS011;3370;47.712;9.082;2022-07-19T09:54:17;6.00;;;4.73;;
6667;SDS011;3370;47.712;9.082;2022-07-19T09:56:49;4.23;;;3.90;;
6667;SDS011;3370;47.712;9.082;2022-07-19T09:59:17;10.60;;;4.83;;
6667;SDS011;3370;47.712;9.082;2022-07-19T10:01:44;4.50;;;4.10;;
6667;SDS011;3370;47.712;9.082;2022-07-19T10:04:16;6.33;;;4.13;;
6667;SDS011;3370;47.712;9.082;2022-07-19T10:06:45;4.20;;;3.90;;
6667;SDS011;3370;47.712;9.082;2022-07-19T10:09:13;11.13;;;4.60;;
6667;SDS011;3370;47.712;9.082;2022-07-19T10:11:41;10.83;;;3.70;;
6667;SDS011;3370;47.712;9.082;2022-07-19T10:14:08;5.73;;;4.07;;
6667;SDS011;3370;47.712;9.082;2022-07-19T10:19:42;6.63;;;4.20;;
6667;SDS011;3370;47.712;9.082;2022-07-19T10:22:14;5.43;;;4.00;;
6667;SDS011;3370;47.712;9.082;2022-07-19T10:24:52;6.53;;;4.20;;
6667;SDS011;3370;47.712;9.082;2022-07-19T10:29:50;4.73;;;3.90;;
6667;SDS011;3370;47.712;9.082;2022-07-19T10:32:40;7.67;;;4.17;;
6667;SDS011;3370;47.712;9.082;2022-07-19T10:35:21;5.40;;;3.97;;
6667;SDS011;3370;47.712;9.082;2022-07-19T10:37:54;5.73;;;4.20;;
6667;SDS011;3370;47.712;9.082;2022-07-19T10:43:04;6.00;;;4.20;;
6667;SDS011;3370;47.712;9.082;2022-07-19T10:45:31;6.30;;;4.40;;
6667;SDS011;3370;47.712;9.082;2022-07-19T10:50:42;4.70;;;3.80;;
6667;SDS011;3370;47.712;9.082;2022-07-19T10:53:10;6.13;;;4.30;;
6667;SDS011;3370;47.712;9.082;2022-07-19T10:55:36;5.70;;;3.70;;
6667;SDS011;3370;47.712;9.082;2022-07-19T11:00:31;4.10;;;3.80;;
6667;SDS011;3370;47.712;9.082;2022-07-19T11:05:48;5.03;;;4.30;;
6667;SDS011;3370;47.712;9.082;2022-07-19T11:08:30;5.77;;;3.80;;
6667;SDS011;3370;47.712;9.082;2022-07-19T11:11:07;7.43;;;3.80;;
6667;SDS011;3370;47.712;9.082;2022-07-19T11:13:39;5.17;;;3.37;;
6667;SDS011;3370;47.712;9.082;2022-07-19T11:16:09;5.40;;;3.30;;
6667;SDS011;3370;47.712;9.082;2022-07-19T11:18:35;4.20;;;3.80;;
6667;SDS011;3370;47.712;9.082;2022-07-19T11:21:02;4.23;;;3.83;;
6667;SDS011;3370;47.712;9.082;2022-07-19T11:23:51;8.47;;;3.73;;
6667;SDS011;3370;47.712;9.082;2022-07-19T11:26:18;3.67;;;3.37;;
6667;SDS011;3370;47.712;9.082;2022-07-19T11:28:47;3.73;;;3.20;;
6667;SDS011;3370;47.712;9.082;2022-07-19T11:31:15;15.10;;;3.97;;
6667;SDS011;3370;47.712;9.082;2022-07-19T11:33:44;3.30;;;3.00;;
6667;SDS011;3370;47.712;9.082;2022-07-19T11:36:16;5.40;;;3.60;;
6667;SDS011;3370;47.712;9.082;2022-07-19T11:38:47;7.03;;;3.87;;
6667;SDS011;3370;47.712;9.082;2022-07-19T11:41:19;11.10;;;4.10;;
6667;SDS011;3370;47.712;9.082;2022-07-19T11:43:59;3.50;;;3.20;;
6667;SDS011;3370;47.712;9.082;2022-07-19T11:46:31;3.90;;;3.27;;
6667;SDS011;3370;47.712;9.082;2022-07-19T11:49:03;3.33;;;3.10;;
6667;SDS011;3370;47.712;9.082;2022-07-19T11:51:32;3.40;;;3.13;;
6667;SDS011;3370;47.712;9.082;2022-07-19T11:53:59;4.40;;;3.10;;
6667;SDS011;3370;47.712;9.082;2022-07-19T11:56:28;5.43;;;3.10;;
6667;SDS011;3370;47.712;9.082;2022-07-19T11:58:59;12.03;;;3.20;;
6667;SDS011;3370;47.712;9.082;2022-07-19T12:01:30;5.20;;;3.20;;
6667;SDS011;3370;47.712;9.082;2022-07-19T12:06:43;8.70;;;3.03;;
6667;SDS011;3370;47.712;9.082;2022-07-19T12:11:49;2.90;;;2.70;;
6667;SDS011;3370;47.712;9.082;2022-07-19T12:19:43;2.97;;;2.70;;
6667;SDS011;3370;47.712;9.082;2022-07-19T12:22:26;5.50;;;2.70;;
6667;SDS011;3370;47.712;9.082;2022-07-19T12:24:58;3.67;;;2.60;;
6667;SDS011;3370;47.712;9.082;2022-07-19T12:27:25;6.93;;;3.10;;
6667;SDS011;3370;47.712;9.082;2022-07-19T12:29:53;2.67;;;2.47;;
6667;SDS011;3370;47.712;9.082;2022-07-19T12:34:57;3.47;;;3.17;;
6667;SDS011;3370;47.712;9.082;2022-07-19T12:37:28;7.33;;;2.90;;
6667;SDS011;3370;47.712;9.082;2022-07-19T12:40:06;3.10;;;2.50;;
6667;SDS011;3370;47.712;9.082;2022-07-19T12:42:41;5.07;;;3.13;;
6667;SDS011;3370;47.712;9.082;2022-07-19T12:45:10;7.47;;;2.97;;
6667;SDS011;3370;47.712;9.082;2022-07-19T12:47:47;7.18;;;2.83;;
6667;SDS011;3370;47.712;9.082;2022-07-19T12:52:55;5.15;;;2.78;;
6667;SDS011;3370;47.712;9.082;2022-07-19T12:55:24;2.70;;;2.50;;
6667;SDS011;3370;47.712;9.082;2022-07-19T12:57:52;3.88;;;2.88;;
6667;SDS011;3370;47.712;9.082;2022-07-19T13:00:20;8.65;;;3.10;;
6667;SDS011;3370;47.712;9.082;2022-07-19T13:02:49;5.80;;;2.60;;
6667;SDS011;3370;47.712;9.082;2022-07-19T13:05:17;4.20;;;3.33;;
6667;SDS011;3370;47.712;9.082;2022-07-19T13:07:44;6.65;;;2.85;;
6667;SDS011;3370;47.712;9.082;2022-07-19T13:10:10;3.00;;;2.80;;
6667;SDS011;3370;47.712;9.082;2022-07-19T13:12:36;4.72;;;3.28;;
6667;SDS011;3370;47.712;9.082;2022-07-19T13:15:03;8.20;;;2.53;;
6667;SDS011;3370;47.712;9.082;2022-07-19T13:17:30;5.50;;;2.95;;
6667;SDS011;3370;47.712;9.082;2022-07-19T13:19:57;6.63;;;3.17;;
6667;SDS011;3370;47.712;9.082;2022-07-19T13:22:24;4.97;;;3.00;;
6667;SDS011;3370;47.712;9.082;2022-07-19T13:24:50;3.47;;;2.63;;
6667;SDS011;3370;47.712;9.082;2022-07-19T13:27:16;3.55;;;2.70;;
6667;SDS011;3370;47.712;9.082;2022-07-19T13:29:43;5.93;;;2.92;;
6667;SDS011;3370;47.712;9.082;2022-07-19T13:32:10;9.32;;;2.90;;
6667;SDS011;3370;47.712;9.082;2022-07-19T13:34:37;4.72;;;2.97;;
6667;SDS011;3370;47.712;9.082;2022-07-19T13:37:04;15.95;;;2.70;;
6667;SDS011;3370;47.712;9.082;2022-07-19T13:39:30;3.95;;;2.70;;
6667;SDS011;3370;47.712;9.082;2022-07-19T13:41:56;3.10;;;2.78;;
6667;SDS011;3370;47.712;9.082;2022-07-19T13:44:22;5.47;;;2.58;;
6667;SDS011;3370;47.712;9.082;2022-07-19T13:46:49;3.60;;;2.70;;
6667;SDS011;3370;47.712;9.082;2022-07-19T13:49:15;4.95;;;2.25;;
6667;SDS011;3370;47.712;9.082;2022-07-19T13:51:41;8.25;;;2.40;;
6667;SDS011;3370;47.712;9.082;2022-07-19T13:54:08;5.07;;;3.00;;
6667;SDS011;3370;47.712;9.082;2022-07-19T13:56:34;3.67;;;2.45;;
6667;SDS011;3370;47.712;9.082;2022-07-19T13:59:00;6.95;;;2.97;;
6667;SDS011;3370;47.712;9.082;2022-07-19T14:01:26;15.48;;;2.88;;
6667;SDS011;3370;47.712;9.082;2022-07-19T14:03:54;5.25;;;2.67;;
6667;SDS011;3370;47.712;9.082;2022-07-19T14:06:21;2.78;;;2.58;;
6667;SDS011;3370;47.712;9.082;2022-07-19T14:08:47;6.30;;;2.47;;
6667;SDS011;3370;47.712;9.082;2022-07-19T14:11:13;3.65;;;2.38;;
6667;SDS011;3370;47.712;9.082;2022-07-19T14:13:41;9.68;;;3.00;;
6667;SDS011;3370;47.712;9.082;2022-07-19T14:16:07;3.03;;;2.22;;
6667;SDS011;3370;47.712;9.082;2022-07-19T14:18:32;3.05;;;2.75;;
6667;SDS011;3370;47.712;9.082;2022-07-19T14:20:59;4.40;;;2.67;;
6667;SDS011;3370;47.712;9.082;2022-07-19T14:23:25;2.92;;;2.63;;
6667;SDS011;3370;47.712;9.082;2022-07-19T14:25:51;4.57;;;2.50;;
6667;SDS011;3370;47.712;9.082;2022-07-19T14:28:17;3.78;;;2.45;;
6667;SDS011;3370;47.712;9.082;2022-07-19T14:30:43;3.88;;;2.30;;
6667;SDS011;3370;47.712;9.082;2022-07-19T14:33:10;3.35;;;2.42;;
6667;SDS011;3370;47.712;9.082;2022-07-19T14:35:36;4.85;;;2.28;;
6667;SDS011;3370;47.712;9.082;2022-07-19T14:38:02;3.08;;;2.47;;
6667;SDS011;3370;47.712;9.082;2022-07-19T14:40:29;3.80;;;2.47;;
6667;SDS011;3370;47.712;9.082;2022-07-19T14:42:55;4.93;;;2.40;;
6667;SDS011;3370;47.712;9.082;2022-07-19T14:45:21;7.10;;;2.70;;
6667;SDS011;3370;47.712;9.082;2022-07-19T14:47:48;5.10;;;2.40;;
6667;SDS011;3370;47.712;9.082;2022-07-19T14:50:14;2.85;;;2.38;;
6667;SDS011;3370;47.712;9.082;2022-07-19T14:52:40;12.45;;;2.65;;
6667;SDS011;3370;47.712;9.082;2022-07-19T14:55:07;3.13;;;2.38;;
6667;SDS011;3370;47.712;9.082;2022-07-19T14:57:35;4.55;;;2.13;;
6667;SDS011;3370;47.712;9.082;2022-07-19T15:00:03;5.60;;;2.40;;
6667;SDS011;3370;47.712;9.082;2022-07-19T15:02:31;3.80;;;2.47;;
6667;SDS011;3370;47.712;9.082;2022-07-19T15:04:57;3.30;;;2.65;;
6667;SDS011;3370;47.712;9.082;2022-07-19T15:07:23;8.13;;;5.55;;
6667;SDS011;3370;47.712;9.082;2022-07-19T15:09:50;4.28;;;3.25;;
6667;SDS011;3370;47.712;9.082;2022-07-19T15:12:17;5.68;;;2.45;;
6667;SDS011;3370;47.712;9.082;2022-07-19T15:14:43;6.78;;;2.47;;
6667;SDS011;3370;47.712;9.082;2022-07-19T15:17:09;4.78;;;2.30;;
6667;SDS011;3370;47.712;9.082;2022-07-19T15:19:35;5.07;;;2.15;;
6667;SDS011;3370;47.712;9.082;2022-07-19T15:22:01;3.55;;;2.60;;
6667;SDS011;3370;47.712;9.082;2022-07-19T15:24:28;3.58;;;2.45;;
6667;SDS011;3370;47.712;9.082;2022-07-19T15:26:54;3.63;;;2.63;;
6667;SDS011;3370;47.712;9.082;2022-07-19T15:29:21;4.93;;;2.30;;
6667;SDS011;3370;47.712;9.082;2022-07-19T15:31:47;7.13;;;2.63;;
6667;SDS011;3370;47.712;9.082;2022-07-19T15:34:14;3.60;;;2.90;;
6667;SDS011;3370;47.712;9.082;2022-07-19T15:36:49;4.57;;;2.42;;
6667;SDS011;3370;47.712;9.082;2022-07-19T15:39:15;7.55;;;2.28;;
6667;SDS011;3370;47.712;9.082;2022-07-19T15:41:41;3.10;;;2.05;;
6667;SDS011;3370;47.712;9.082;2022-07-19T15:44:07;4.45;;;2.53;;
6667;SDS011;3370;47.712;9.082;2022-07-19T15:46:33;3.42;;;2.20;;
6667;SDS011;3370;47.712;9.082;2022-07-19T15:48:59;7.00;;;2.88;;
6667;SDS011;3370;47.712;9.082;2022-07-19T15:51:27;5.70;;;2.60;;
6667;SDS011;3370;47.712;9.082;2022-07-19T15:53:55;5.68;;;2.28;;
6667;SDS011;3370;47.712;9.082;2022-07-19T15:56:26;6.00;;;2.60;;
6667;SDS011;3370;47.712;9.082;2022-07-19T15:59:02;2.60;;;2.40;;
6667;SDS011;3370;47.712;9.082;2022-07-19T16:01:34;4.28;;;2.80;;